Terminal Aerodrome Forecast
Issued by NWS Charleston, WV

Current Version | Previous Version | Graphics & Text | Print | Product List | Glossary On
Versions: 1 2 3 4 5 6 7 8 9 10 11 12 13 14 15 16 17 18 19 20 21 22 23
000
FTUS41 KRLX 200538
TAFHTS
TAF
KHTS 200538Z 2006/2106 21006KT P6SM SCT250
     FM200800 21007KT P6SM FEW040
     FM201500 22006G17KT P6SM BKN035
     FM202200 22005KT P6SM BKN025=

USA.gov is the U.S. government's official web portal to all federal, state and local government web resources and services.